Time;durP1;ratioP1;P1;durP2;ratioP2;P2;SDS_P1;SDS_P2;PMS_P1;PMS_P2;Temp;Humidity;BMP_temperature;BMP_pressure;BME280_temperature;BME280_humidity;BME280_pressure;Samples;Min_cycle;Max_cycle;Signal;HPM_P1;HPM_P2
2022/10/12 00:01:04;;;;;;;24.60;12.20;;;4.80;99.90;;;;;;5034874;28;20194;-59
2022/10/12 00:03:33;;;;;;;22.60;12.37;;;4.80;99.90;;;;;;5036854;28;20284;-59
2022/10/12 00:06:03;;;;;;;20.00;11.80;;;4.80;99.90;;;;;;5035046;28;20190;-59
2022/10/12 00:08:32;;;;;;;19.03;11.60;;;4.70;99.90;;;;;;5035022;28;20197;-59
2022/10/12 00:11:02;;;;;;;19.30;11.27;;;4.70;99.90;;;;;;5035355;28;20248;-59
2022/10/12 00:13:31;;;;;;;21.57;11.27;;;4.70;99.90;;;;;;5031736;28;20197;-59
2022/10/12 00:16:03;;;;;;;16.97;11.50;;;4.70;99.90;;;;;;5028922;28;20661;-59
2022/10/12 00:18:31;;;;;;;17.27;12.37;;;4.60;99.90;;;;;;5031956;28;20225;-59
2022/10/12 00:21:03;;;;;;;22.40;12.40;;;4.60;99.90;;;;;;5031947;28;20252;-59
2022/10/12 00:23:33;;;;;;;23.53;11.93;;;4.60;99.90;;;;;;5029394;28;20193;-59
2022/10/12 00:26:04;;;;;;;23.40;11.87;;;4.50;99.90;;;;;;5029582;28;20201;-59
2022/10/12 00:28:33;;;;;;;20.43;11.47;;;4.50;99.90;;;;;;5030037;28;20185;-59
2022/10/12 00:31:08;;;;;;;19.67;11.40;;;4.50;99.90;;;;;;5028787;28;20205;-59
2022/10/12 00:33:37;;;;;;;18.80;11.77;;;4.40;99.90;;;;;;5029661;28;20198;-59
2022/10/12 00:36:14;;;;;;;18.60;11.47;;;4.40;99.90;;;;;;5028530;28;20200;-59
2022/10/12 00:38:43;;;;;;;20.07;11.87;;;4.30;99.90;;;;;;5036775;28;20216;-59
2022/10/12 00:41:15;;;;;;;23.60;12.57;;;4.30;99.90;;;;;;5026215;28;20941;-59
2022/10/12 00:43:45;;;;;;;25.97;11.97;;;4.30;99.90;;;;;;5033886;28;20214;-59
2022/10/12 00:46:18;;;;;;;24.27;12.77;;;4.40;99.90;;;;;;5027736;28;20229;-59
2022/10/12 00:48:50;;;;;;;21.60;12.23;;;4.40;99.90;;;;;;5029790;28;20222;-59
2022/10/12 00:51:20;;;;;;;19.63;12.03;;;4.40;99.90;;;;;;5031894;28;20185;-59
2022/10/12 00:53:58;;;;;;;18.23;11.60;;;4.40;99.90;;;;;;5028751;28;20203;-59
2022/10/12 00:56:32;;;;;;;17.27;10.93;;;4.30;99.90;;;;;;5035276;28;20620;-59
2022/10/12 00:59:02;;;;;;;19.97;11.83;;;4.30;99.90;;;;;;5034436;28;20228;-59
2022/10/12 01:01:35;;;;;;;19.00;11.50;;;4.20;99.90;;;;;;5033829;28;20204;-59
2022/10/12 01:04:13;;;;;;;16.43;11.30;;;4.20;99.90;;;;;;5038449;28;20546;-59
2022/10/12 01:06:41;;;;;;;21.27;11.07;;;4.20;99.90;;;;;;5023277;28;20523;-59
2022/10/12 01:09:10;;;;;;;20.40;11.50;;;4.10;99.90;;;;;;5029165;28;20201;-59
2022/10/12 01:11:39;;;;;;;21.90;11.63;;;4.10;99.90;;;;;;5030010;28;20213;-59
2022/10/12 01:14:08;;;;;;;18.70;11.87;;;4.00;99.90;;;;;;5042553;28;20202;-59
2022/10/12 01:16:40;;;;;;;21.20;12.23;;;4.00;99.90;;;;;;5026924;28;20217;-59
2022/10/12 01:19:28;;;;;;;25.53;11.73;;;4.00;99.90;;;;;;5027758;28;20567;-59
2022/10/12 01:22:01;;;;;;;18.83;11.90;;;4.00;99.90;;;;;;5029165;28;20201;-59
2022/10/12 01:24:46;;;;;;;18.43;10.83;;;4.00;99.90;;;;;;5034867;28;20201;-59
2022/10/12 01:27:40;;;;;;;21.47;11.63;;;3.90;99.90;;;;;;5041293;28;20248;-59
2022/10/12 01:30:13;;;;;;;17.60;10.80;;;4.00;99.90;;;;;;5033963;28;20538;-59
2022/10/12 01:33:05;;;;;;;19.07;11.20;;;3.90;99.90;;;;;;5029580;28;20639;-59
2022/10/12 01:35:42;;;;;;;20.73;11.30;;;3.90;99.90;;;;;;5024416;28;20211;-59
2022/10/12 01:38:21;;;;;;;17.67;10.63;;;3.90;99.90;;;;;;5030563;28;20204;-59
2022/10/12 01:40:59;;;;;;;18.27;10.73;;;3.90;99.90;;;;;;5031933;28;20213;-59
2022/10/12 01:43:34;;;;;;;19.67;11.40;;;3.80;99.90;;;;;;5029519;28;20196;-59
2022/10/12 01:46:41;;;;;;;21.07;11.57;;;3.80;99.90;;;;;;5036411;28;20528;-59
2022/10/12 01:49:11;;;;;;;17.23;11.20;;;3.80;99.90;;;;;;5028136;28;20193;-59
2022/10/12 01:51:52;;;;;;;20.20;11.50;;;3.80;99.90;;;;;;5030830;28;20205;-59
2022/10/12 01:54:34;;;;;;;20.60;11.43;;;3.80;99.90;;;;;;5029842;28;20555;-59
2022/10/12 01:57:09;;;;;;;17.40;11.23;;;3.80;99.90;;;;;;5034464;28;20189;-59
2022/10/12 01:59:47;;;;;;;18.57;10.67;;;3.80;99.90;;;;;;5031155;28;20209;-59
2022/10/12 02:02:26;;;;;;;19.97;11.03;;;3.70;99.90;;;;;;5036753;28;20196;-59
2022/10/12 02:05:01;;;;;;;17.53;11.50;;;3.70;99.90;;;;;;5035793;28;20649;-59
2022/10/12 02:07:40;;;;;;;18.53;10.97;;;3.70;99.90;;;;;;5035298;28;20657;-59
2022/10/12 02:10:14;;;;;;;20.23;10.60;;;3.70;99.90;;;;;;5032730;28;20302;-59
2022/10/12 02:12:45;;;;;;;20.10;10.93;;;3.70;99.90;;;;;;5017258;28;20514;-59
2022/10/12 02:15:16;;;;;;;27.50;12.20;;;3.60;99.90;;;;;;5031294;28;20538;-59
2022/10/12 02:17:49;;;;;;;23.60;12.30;;;3.70;99.90;;;;;;5030833;28;20271;-59
2022/10/12 02:20:20;;;;;;;21.60;11.67;;;3.70;99.90;;;;;;5026844;28;20213;-59
2022/10/12 02:22:50;;;;;;;18.87;11.70;;;3.70;99.90;;;;;;5030042;28;20201;-59
2022/10/12 02:25:22;;;;;;;20.47;11.50;;;3.70;99.90;;;;;;5034870;28;20648;-59
2022/10/12 02:27:56;;;;;;;22.07;11.60;;;3.70;99.90;;;;;;5029495;28;20201;-59
2022/10/12 02:30:25;;;;;;;19.90;12.33;;;3.70;99.90;;;;;;5034362;28;20205;-59
2022/10/12 02:33:03;;;;;;;20.33;11.43;;;3.70;99.90;;;;;;5025594;28;20199;-59
2022/10/12 02:35:34;;;;;;;17.40;10.13;;;3.70;99.90;;;;;;5029531;28;20197;-59
2022/10/12 02:38:10;;;;;;;22.17;10.80;;;3.70;99.90;;;;;;5032415;28;20197;-59
2022/10/12 02:40:43;;;;;;;15.87;10.10;;;3.70;99.90;;;;;;5028490;28;20212;-61
2022/10/12 02:43:16;;;;;;;18.73;10.17;;;3.60;99.90;;;;;;5031840;28;20251;-59
2022/10/12 02:45:47;;;;;;;16.33;10.53;;;3.60;99.90;;;;;;5045864;28;20197;-59
2022/10/12 02:48:19;;;;;;;16.03;10.20;;;3.60;99.90;;;;;;5032034;28;20205;-59
2022/10/12 02:50:49;;;;;;;17.93;10.60;;;3.50;99.90;;;;;;5033347;28;20216;-59
2022/10/12 02:53:17;;;;;;;20.13;10.53;;;3.50;99.90;;;;;;5036740;28;20206;-59
2022/10/12 02:55:50;;;;;;;20.63;11.17;;;3.50;99.90;;;;;;5036892;28;20188;-59
2022/10/12 02:58:19;;;;;;;17.63;10.27;;;3.60;99.90;;;;;;5031296;28;20198;-59
2022/10/12 03:00:47;;;;;;;18.30;10.33;;;3.60;99.90;;;;;;5035345;28;20669;-59
2022/10/12 03:03:17;;;;;;;21.73;10.57;;;3.60;99.90;;;;;;5028272;28;20204;-59
2022/10/12 03:05:47;;;;;;;18.80;10.23;;;3.60;99.90;;;;;;5028590;28;20193;-59
2022/10/12 03:08:15;;;;;;;25.23;10.73;;;3.60;99.90;;;;;;5030568;28;20197;-59
2022/10/12 03:10:43;;;;;;;29.60;11.93;;;3.60;99.90;;;;;;5030566;28;20236;-59
2022/10/12 03:13:11;;;;;;;29.20;12.20;;;3.60;99.90;;;;;;5027953;28;20224;-59
2022/10/12 03:15:40;;;;;;;35.07;12.60;;;3.60;99.90;;;;;;5029439;28;20276;-59
2022/10/12 03:18:08;;;;;;;33.90;12.90;;;3.60;99.90;;;;;;5030841;28;20193;-58
2022/10/12 03:20:38;;;;;;;33.17;12.73;;;3.60;99.90;;;;;;5031134;28;20225;-59
2022/10/12 03:23:06;;;;;;;38.07;13.20;;;3.60;99.90;;;;;;5030317;28;20266;-59
2022/10/12 03:25:34;;;;;;;40.13;14.87;;;3.50;99.90;;;;;;5030804;28;20197;-59
2022/10/12 03:28:03;;;;;;;44.43;15.40;;;3.60;99.90;;;;;;5030004;28;20197;-59
2022/10/12 03:30:31;;;;;;;44.33;16.33;;;3.60;99.90;;;;;;5024651;28;20547;-59
2022/10/12 03:32:59;;;;;;;34.90;15.40;;;3.60;99.90;;;;;;5030004;28;20439;-59
2022/10/12 03:35:28;;;;;;;34.13;14.60;;;3.60;99.90;;;;;;5032812;28;20208;-59
2022/10/12 03:37:57;;;;;;;35.17;16.13;;;3.50;99.90;;;;;;5030575;28;20653;-59
2022/10/12 03:40:26;;;;;;;36.90;14.90;;;3.50;99.90;;;;;;5033164;28;20221;-59
2022/10/12 03:42:54;;;;;;;31.73;14.70;;;3.50;99.90;;;;;;5033332;28;20276;-59
2022/10/12 03:45:22;;;;;;;24.57;13.93;;;3.50;99.90;;;;;;5030969;28;20220;-59
2022/10/12 03:47:50;;;;;;;34.13;15.77;;;3.50;99.90;;;;;;5033111;28;20209;-59
2022/10/12 03:50:19;;;;;;;32.50;15.30;;;3.50;99.90;;;;;;5034918;28;20202;-59
2022/10/12 03:52:47;;;;;;;32.10;14.83;;;3.50;99.90;;;;;;5032010;28;20202;-59
2022/10/12 03:55:17;;;;;;;26.10;13.90;;;3.50;99.90;;;;;;5033579;28;20209;-59
2022/10/12 03:57:45;;;;;;;35.30;14.20;;;3.50;99.90;;;;;;5034882;28;20212;-59
2022/10/12 04:00:14;;;;;;;23.90;13.53;;;3.50;99.90;;;;;;5032726;28;20225;-59
2022/10/12 04:03:08;;;;;;;31.70;14.97;;;3.40;99.90;;;;;;5034499;28;20621;-59
2022/10/12 04:05:39;;;;;;;33.93;14.67;;;3.40;99.90;;;;;;5033385;28;20189;-59
2022/10/12 04:08:08;;;;;;;34.57;14.37;;;3.40;99.90;;;;;;5034698;28;20280;-59
2022/10/12 04:10:37;;;;;;;32.27;14.43;;;3.40;99.90;;;;;;5032545;28;20283;-59
2022/10/12 04:13:06;;;;;;;30.87;14.90;;;3.40;99.90;;;;;;5027582;28;20197;-59
2022/10/12 04:15:34;;;;;;;22.27;12.40;;;3.40;99.90;;;;;;5030918;28;20216;-59
2022/10/12 04:18:02;;;;;;;25.70;12.83;;;3.30;99.90;;;;;;5049857;28;20590;-59
2022/10/12 04:20:31;;;;;;;26.40;13.70;;;3.30;99.90;;;;;;5038630;28;20676;-59
2022/10/12 04:22:59;;;;;;;28.20;14.23;;;3.30;99.90;;;;;;5043851;28;20204;-59
2022/10/12 04:25:27;;;;;;;26.20;13.77;;;3.30;99.90;;;;;;5036103;28;20204;-59
2022/10/12 04:27:59;;;;;;;33.43;15.00;;;3.30;99.90;;;;;;5034542;28;20189;-59
2022/10/12 04:30:27;;;;;;;31.87;14.13;;;3.30;99.90;;;;;;5034477;28;20754;-59
2022/10/12 04:32:56;;;;;;;30.60;14.77;;;3.30;99.90;;;;;;5033199;28;20243;-59
2022/10/12 04:35:24;;;;;;;25.33;14.37;;;3.30;99.90;;;;;;5032742;28;20560;-59
2022/10/12 04:37:52;;;;;;;27.63;14.30;;;3.30;99.90;;;;;;5034848;28;20248;-59
2022/10/12 04:40:20;;;;;;;25.87;14.23;;;3.30;99.90;;;;;;5030913;28;20198;-59
2022/10/12 04:42:49;;;;;;;31.00;14.13;;;3.30;99.90;;;;;;5032008;28;20205;-59
2022/10/12 04:45:18;;;;;;;30.00;14.07;;;3.20;99.90;;;;;;5031943;28;20206;-59
2022/10/12 04:47:47;;;;;;;29.70;14.10;;;3.20;99.90;;;;;;5026671;28;20212;-59
2022/10/12 04:50:15;;;;;;;24.03;14.33;;;3.20;99.90;;;;;;5026219;28;20193;-59
2022/10/12 04:52:44;;;;;;;29.60;13.80;;;3.10;99.90;;;;;;5042264;28;20204;-59
2022/10/12 04:55:12;;;;;;;24.53;13.43;;;3.10;99.90;;;;;;5034774;28;20199;-59
2022/10/12 04:57:40;;;;;;;23.13;12.77;;;3.10;99.90;;;;;;5030606;28;20202;-59
2022/10/12 05:00:10;;;;;;;26.83;14.37;;;3.00;99.90;;;;;;5029303;28;20209;-59
2022/10/12 05:02:39;;;;;;;26.27;13.13;;;3.00;99.90;;;;;;5031808;28;20206;-59
2022/10/12 05:05:08;;;;;;;21.90;13.67;;;2.90;99.90;;;;;;5031151;28;20198;-59
2022/10/12 05:07:37;;;;;;;23.00;13.97;;;2.90;99.90;;;;;;5032183;28;20193;-59
2022/10/12 05:10:06;;;;;;;28.10;14.67;;;2.90;99.90;;;;;;5033405;28;20225;-59
2022/10/12 05:12:34;;;;;;;21.53;12.77;;;2.90;99.90;;;;;;5027629;28;21183;-59
2022/10/12 05:15:03;;;;;;;28.73;13.90;;;2.90;99.90;;;;;;5030146;28;20721;-59
2022/10/12 05:17:31;;;;;;;33.17;14.03;;;2.90;99.90;;;;;;5026767;28;20197;-59
2022/10/12 05:20:01;;;;;;;25.03;13.77;;;2.90;99.90;;;;;;5028787;28;20185;-59
2022/10/12 05:22:29;;;;;;;22.30;13.63;;;2.90;99.90;;;;;;5028843;28;20213;-59
2022/10/12 05:24:58;;;;;;;25.70;13.90;;;2.80;99.90;;;;;;5041897;28;20549;-59
2022/10/12 05:27:26;;;;;;;29.53;14.60;;;2.80;99.90;;;;;;5028340;28;20276;-59
2022/10/12 05:29:54;;;;;;;28.33;15.03;;;2.90;99.90;;;;;;5025532;28;20662;-59
2022/10/12 05:32:23;;;;;;;26.13;14.13;;;2.90;99.90;;;;;;5027922;28;20550;-59
2022/10/12 05:34:51;;;;;;;24.57;13.50;;;2.90;99.90;;;;;;5025546;28;20243;-60
2022/10/12 05:37:20;;;;;;;27.97;13.83;;;2.90;99.90;;;;;;5030287;28;21630;-59
2022/10/12 05:39:50;;;;;;;28.90;13.67;;;2.90;99.90;;;;;;5032212;28;20198;-59
2022/10/12 05:42:19;;;;;;;31.50;13.83;;;2.90;99.90;;;;;;5029712;28;20213;-59
2022/10/12 05:44:47;;;;;;;26.63;13.30;;;2.90;99.90;;;;;;5031880;28;20212;-59
2022/10/12 05:47:15;;;;;;;22.97;13.47;;;2.90;99.90;;;;;;5028716;28;20255;-59
2022/10/12 05:49:43;;;;;;;22.37;13.53;;;2.90;99.90;;;;;;5031586;28;20538;-59
2022/10/12 05:52:11;;;;;;;28.37;13.03;;;3.00;99.90;;;;;;5026761;28;20201;-59
2022/10/12 05:54:41;;;;;;;24.70;13.20;;;3.00;99.90;;;;;;5031132;28;20205;-59
2022/10/12 05:57:10;;;;;;;26.40;12.37;;;2.90;99.90;;;;;;5026919;28;20216;-59
2022/10/12 05:59:38;;;;;;;23.37;12.87;;;2.90;99.90;;;;;;5032178;28;20305;-59
2022/10/12 06:02:07;;;;;;;27.10;13.43;;;2.80;99.90;;;;;;5027321;28;20256;-59
2022/10/12 06:04:35;;;;;;;23.03;13.07;;;2.90;99.90;;;;;;5028767;28;20204;-59
2022/10/12 06:07:03;;;;;;;27.77;13.63;;;2.90;99.90;;;;;;5031975;28;20672;-59
2022/10/12 06:09:32;;;;;;;21.47;12.70;;;2.90;99.90;;;;;;5037230;28;20236;-59
2022/10/12 06:12:01;;;;;;;29.57;13.87;;;2.90;99.90;;;;;;5040406;28;20221;-59
2022/10/12 06:14:30;;;;;;;24.33;13.50;;;2.90;99.90;;;;;;5035766;28;20199;-59
2022/10/12 06:16:58;;;;;;;23.33;11.97;;;2.90;99.90;;;;;;5031067;28;20204;-59
2022/10/12 06:19:26;;;;;;;20.20;12.67;;;2.90;99.90;;;;;;5032055;28;20655;-59
2022/10/12 06:21:54;;;;;;;21.10;13.23;;;2.90;99.90;;;;;;5028329;28;20209;-59
2022/10/12 06:24:23;;;;;;;23.17;12.60;;;2.90;99.90;;;;;;5031801;28;20197;-59
2022/10/12 06:26:51;;;;;;;20.30;11.43;;;3.00;99.90;;;;;;5032331;28;20558;-59
2022/10/12 06:29:22;;;;;;;14.60;10.07;;;3.00;99.90;;;;;;5031646;28;20633;-59
2022/10/12 06:31:50;;;;;;;13.83;10.30;;;3.00;99.90;;;;;;5028454;28;20248;-60
2022/10/12 06:34:19;;;;;;;15.13;10.47;;;3.00;99.90;;;;;;5032948;28;20205;-60
2022/10/12 06:36:47;;;;;;;19.73;11.73;;;3.00;99.90;;;;;;5027693;28;20201;-59
2022/10/12 06:39:15;;;;;;;24.77;11.87;;;3.10;99.90;;;;;;5028089;28;20193;-60
2022/10/12 06:41:44;;;;;;;20.07;12.87;;;3.10;99.90;;;;;;5030552;28;20562;-59
2022/10/12 06:44:12;;;;;;;21.27;13.00;;;3.20;99.90;;;;;;5050813;28;20624;-59
2022/10/12 06:46:41;;;;;;;23.90;13.20;;;3.30;99.90;;;;;;5029673;28;20197;-59
2022/10/12 06:49:10;;;;;;;24.63;14.23;;;3.40;99.90;;;;;;5037723;28;20203;-59
2022/10/12 06:51:38;;;;;;;22.30;13.00;;;3.40;99.90;;;;;;5043980;28;20208;-59
2022/10/12 06:54:07;;;;;;;28.03;13.87;;;3.50;99.90;;;;;;5030226;28;20189;-60
2022/10/12 06:56:38;;;;;;;28.00;15.40;;;3.60;99.90;;;;;;5027873;28;20188;-59
2022/10/12 06:59:07;;;;;;;33.03;15.80;;;3.70;99.90;;;;;;5039619;28;20221;-59
2022/10/12 07:01:35;;;;;;;30.23;16.53;;;3.90;99.90;;;;;;5033095;28;20670;-59
2022/10/12 07:04:05;;;;;;;36.23;17.90;;;4.00;99.90;;;;;;5038726;28;20221;-59
2022/10/12 07:06:33;;;;;;;36.20;17.33;;;4.20;99.90;;;;;;5030269;28;20194;-59
2022/10/12 07:09:02;;;;;;;31.30;17.43;;;4.40;99.90;;;;;;5029027;28;20201;-59
2022/10/12 07:11:30;;;;;;;37.30;17.93;;;4.50;99.90;;;;;;5040483;28;20229;-59
2022/10/12 07:13:58;;;;;;;31.77;18.53;;;4.70;99.90;;;;;;5027216;28;20220;-60
2022/10/12 07:16:27;;;;;;;38.87;17.97;;;4.90;99.90;;;;;;5028498;28;20284;-60
2022/10/12 07:18:55;;;;;;;36.87;19.17;;;5.10;99.90;;;;;;5031204;28;20209;-59
2022/10/12 07:21:25;;;;;;;43.37;20.07;;;5.40;99.90;;;;;;5031288;28;20201;-60
2022/10/12 07:23:53;;;;;;;36.80;17.43;;;5.60;99.90;;;;;;5011200;28;20328;-59
2022/10/12 07:26:21;;;;;;;33.40;17.37;;;5.80;99.90;;;;;;5027985;28;20193;-59
2022/10/12 07:28:50;;;;;;;30.83;17.00;;;5.90;99.90;;;;;;5026482;28;20206;-59
2022/10/12 07:31:18;;;;;;;34.37;17.27;;;6.10;99.90;;;;;;5027326;28;20205;-59
2022/10/12 07:33:47;;;;;;;29.83;15.87;;;6.30;99.90;;;;;;5026694;28;20197;-60
2022/10/12 07:36:15;;;;;;;31.37;16.73;;;6.40;99.90;;;;;;5034739;28;20193;-60
2022/10/12 07:38:50;;;;;;;30.70;15.60;;;6.50;99.90;;;;;;5032008;28;20217;-59
2022/10/12 07:41:19;;;;;;;41.37;19.50;;;6.70;99.90;;;;;;5040416;28;20197;-59
2022/10/12 07:43:47;;;;;;;39.53;20.07;;;6.80;99.90;;;;;;5032654;28;20221;-60
2022/10/12 07:46:15;;;;;;;34.60;17.30;;;6.90;99.90;;;;;;5031421;28;20854;-59
2022/10/12 07:48:43;;;;;;;44.00;18.33;;;7.00;99.90;;;;;;5031221;28;20197;-60
2022/10/12 07:51:17;;;;;;;29.23;15.97;;;7.20;99.90;;;;;;5040741;28;20235;-60
2022/10/12 07:53:46;;;;;;;30.67;16.53;;;7.30;99.90;;;;;;5035226;28;20204;-60
2022/10/12 07:56:16;;;;;;;33.83;15.63;;;7.50;99.90;;;;;;5029463;28;20194;-60
2022/10/12 07:58:48;;;;;;;34.27;16.23;;;7.60;99.90;;;;;;5030662;28;20189;-59
2022/10/12 08:01:18;;;;;;;33.17;15.87;;;7.80;99.90;;;;;;5029498;28;20210;-60
2022/10/12 08:03:47;;;;;;;27.27;14.93;;;7.90;99.90;;;;;;5031997;28;20214;-60
2022/10/12 08:06:16;;;;;;;29.27;15.27;;;8.00;99.90;;;;;;5027495;28;20223;-59
2022/10/12 08:08:45;;;;;;;33.67;15.27;;;8.00;99.90;;;;;;5028816;28;20204;-60
2022/10/12 08:11:16;;;;;;;32.27;15.60;;;8.20;99.90;;;;;;5025664;28;20241;-62
2022/10/12 08:13:44;;;;;;;31.57;15.20;;;8.20;99.90;;;;;;5032249;28;20194;-59
2022/10/12 08:16:15;;;;;;;27.47;15.07;;;8.30;99.90;;;;;;5030441;28;20558;-60
2022/10/12 08:18:44;;;;;;;22.83;14.43;;;8.40;99.90;;;;;;5022388;28;20212;-59
2022/10/12 08:21:14;;;;;;;25.70;13.60;;;8.50;99.90;;;;;;5030688;28;20205;-60
2022/10/12 08:23:43;;;;;;;24.83;14.23;;;8.50;99.90;;;;;;5032027;28;20692;-60
2022/10/12 08:26:12;;;;;;;26.77;14.57;;;8.60;99.90;;;;;;5033232;28;20189;-60
2022/10/12 08:28:42;;;;;;;27.83;14.87;;;8.70;99.90;;;;;;5034684;28;20201;-59
2022/10/12 08:31:14;;;;;;;29.73;14.20;;;8.90;99.90;;;;;;5033044;28;21244;-60
2022/10/12 08:33:42;;;;;;;23.83;13.97;;;8.90;99.90;;;;;;5031813;28;20197;-59
2022/10/12 08:36:12;;;;;;;26.03;14.57;;;9.00;99.90;;;;;;5031657;28;20189;-60
2022/10/12 08:38:42;;;;;;;24.13;13.60;;;9.10;99.90;;;;;;5032903;28;20557;-60
2022/10/12 08:41:35;;;;;;;31.63;20.10;;;9.30;99.90;;;;;;5041406;28;20285;-60
2022/10/12 08:44:26;;;;;;;30.03;13.87;;;9.50;99.90;;;;;;5035770;28;20673;-59
2022/10/12 08:46:57;;;;;;;84.93;42.23;;;9.60;99.90;;;;;;5031875;28;20204;-59
2022/10/12 08:49:31;;;;;;;40.70;21.90;;;9.80;99.90;;;;;;5028046;28;20217;-59
2022/10/12 08:52:03;;;;;;;28.83;14.17;;;9.90;99.90;;;;;;5029268;28;20686;-60
2022/10/12 08:54:38;;;;;;;71.67;36.93;;;10.00;99.90;;;;;;5029573;28;20553;-59
2022/10/12 08:57:13;;;;;;;50.83;22.50;;;10.10;99.90;;;;;;5027942;28;20197;-59
2022/10/12 08:59:43;;;;;;;33.63;16.13;;;10.20;99.90;;;;;;5033580;28;20200;-59
2022/10/12 09:02:46;;;;;;;46.93;23.33;;;10.40;99.90;;;;;;5033113;28;20200;-59
2022/10/12 09:05:18;;;;;;;71.33;33.30;;;10.60;99.90;;;;;;5033874;28;20220;-59
2022/10/12 09:07:54;;;;;;;47.87;22.10;;;10.80;99.90;;;;;;5030762;28;20653;-60
2022/10/12 09:10:34;;;;;;;47.00;23.13;;;11.00;99.90;;;;;;5042955;28;20242;-59
2022/10/12 09:13:11;;;;;;;17.93;9.77;;;11.20;99.90;;;;;;5034290;28;20205;-59
2022/10/12 09:15:47;;;;;;;17.97;8.30;;;11.50;99.90;;;;;;5032752;28;20201;-60
2022/10/12 09:18:20;;;;;;;15.30;9.17;;;11.60;99.90;;;;;;5039242;28;20196;-60
2022/10/12 09:20:51;;;;;;;24.37;16.53;;;11.60;99.90;;;;;;5043763;28;20274;-60
2022/10/12 09:23:25;;;;;;;20.43;8.93;;;11.60;99.90;;;;;;5043758;28;20228;-59
2022/10/12 09:25:56;;;;;;;19.93;8.97;;;11.70;99.90;;;;;;5041049;28;20193;-60
2022/10/12 09:28:36;;;;;;;20.40;12.17;;;11.90;99.90;;;;;;5041477;28;20216;-60
2022/10/12 09:31:22;;;;;;;23.93;13.03;;;12.10;99.90;;;;;;5029849;28;20201;-59
2022/10/12 09:33:54;;;;;;;16.43;7.83;;;12.20;99.90;;;;;;5030341;28;20203;-60
2022/10/12 09:36:25;;;;;;;14.50;8.00;;;12.40;99.90;;;;;;5042652;28;20212;-60
2022/10/12 09:38:54;;;;;;;12.83;7.03;;;12.40;99.90;;;;;;5032411;28;20205;-60
2022/10/12 09:41:26;;;;;;;17.00;8.73;;;12.50;99.90;;;;;;5024389;28;20194;-60
2022/10/12 09:43:58;;;;;;;15.03;9.57;;;12.70;99.90;;;;;;5025810;28;20224;-60
2022/10/12 09:46:37;;;;;;;17.73;9.27;;;12.50;99.90;;;;;;5028026;28;20204;-59
2022/10/12 09:49:06;;;;;;;16.80;8.73;;;12.50;99.90;;;;;;5026872;28;20208;-60
2022/10/12 09:51:34;;;;;;;21.63;8.77;;;12.60;99.90;;;;;;5029371;28;20198;-59
2022/10/12 09:54:04;;;;;;;17.30;8.07;;;12.70;99.90;;;;;;5043203;28;20665;-59
2022/10/12 09:56:40;;;;;;;15.57;8.43;;;12.70;99.90;;;;;;5033534;28;20193;-59
2022/10/12 09:59:23;;;;;;;17.77;8.77;;;12.80;99.90;;;;;;5032354;28;20200;-60
2022/10/12 10:02:04;;;;;;;14.07;7.93;;;13.00;99.90;;;;;;5030395;28;20209;-59
2022/10/12 10:04:33;;;;;;;14.27;8.77;;;13.00;99.90;;;;;;5035674;28;20757;-59
2022/10/12 10:07:23;;;;;;;19.90;10.07;;;13.20;99.90;;;;;;5032721;28;20194;-60
2022/10/12 10:10:15;;;;;;;16.33;8.03;;;13.30;99.90;;;;;;5037289;28;20225;-59
2022/10/12 10:12:50;;;;;;;15.57;9.37;;;13.40;99.90;;;;;;5026538;28;20204;-60
2022/10/12 10:15:26;;;;;;;15.50;7.70;;;13.60;99.90;;;;;;5031469;28;20202;-60
2022/10/12 10:17:59;;;;;;;21.77;14.80;;;13.60;99.90;;;;;;5024631;28;20208;-60
2022/10/12 10:20:31;;;;;;;19.67;8.23;;;13.60;99.90;;;;;;5030662;28;20197;-59
2022/10/12 10:23:02;;;;;;;15.37;8.30;;;13.60;99.90;;;;;;5034228;28;20204;-59
2022/10/12 10:25:31;;;;;;;17.77;7.23;;;13.90;99.90;;;;;;5023742;28;20221;-60
2022/10/12 10:28:22;;;;;;;15.83;8.20;;;14.10;99.90;;;;;;5037404;28;20197;-60
2022/10/12 10:31:01;;;;;;;14.27;7.10;;;14.30;99.90;;;;;;5026670;28;20205;-60
2022/10/12 10:33:33;;;;;;;14.43;8.17;;;14.50;99.90;;;;;;5024737;28;20197;-60
2022/10/12 10:36:05;;;;;;;16.37;7.00;;;14.60;99.90;;;;;;5027729;28;20212;-59
2022/10/12 10:38:53;;;;;;;15.73;6.43;;;14.60;99.90;;;;;;5041816;28;20193;-60
2022/10/12 10:41:35;;;;;;;14.70;6.80;;;14.60;99.90;;;;;;5030866;28;20197;-60
2022/10/12 10:44:04;;;;;;;20.17;9.80;;;14.70;99.90;;;;;;5023254;28;20213;-59
2022/10/12 10:46:36;;;;;;;15.83;6.50;;;14.70;99.90;;;;;;5029972;28;20668;-59
2022/10/12 10:49:07;;;;;;;14.00;5.77;;;14.80;99.90;;;;;;5026602;28;20542;-58
2022/10/12 10:51:43;;;;;;;10.63;5.80;;;14.70;99.90;;;;;;5027950;28;20368;-58
2022/10/12 10:54:16;;;;;;;16.33;7.40;;;14.70;99.90;;;;;;5028855;28;20199;-58
2022/10/12 10:56:46;;;;;;;14.83;5.47;;;14.60;99.90;;;;;;5027839;28;20577;-59
2022/10/12 10:59:19;;;;;;;15.00;7.43;;;14.90;99.90;;;;;;5025856;28;20252;-58
2022/10/12 11:01:54;;;;;;;14.73;5.93;;;15.10;99.90;;;;;;5029115;28;20198;-58
2022/10/12 11:04:27;;;;;;;12.43;5.63;;;15.30;99.90;;;;;;5025438;28;20688;-58
2022/10/12 11:07:00;;;;;;;12.27;5.60;;;15.50;99.90;;;;;;5026557;28;20193;-58
2022/10/12 11:09:36;;;;;;;9.83;6.13;;;15.70;99.90;;;;;;5020952;28;20567;-59
2022/10/12 11:12:10;;;;;;;17.77;6.50;;;15.80;99.90;;;;;;5026797;28;20205;-59
2022/10/12 11:14:43;;;;;;;13.47;5.80;;;16.00;99.90;;;;;;5026315;28;20201;-59
2022/10/12 11:17:18;;;;;;;12.30;6.00;;;16.40;99.90;;;;;;5028557;28;20308;-59
2022/10/12 11:19:55;;;;;;;13.47;6.00;;;16.70;99.90;;;;;;5030398;28;20605;-59
2022/10/12 11:22:29;;;;;;;13.03;5.37;;;17.00;99.90;;;;;;5029782;28;20282;-58
2022/10/12 11:25:07;;;;;;;10.83;6.00;;;17.00;99.90;;;;;;5029682;28;20216;-58
2022/10/12 11:27:37;;;;;;;13.73;5.80;;;17.00;99.90;;;;;;5031002;28;20206;-59
2022/10/12 11:30:12;;;;;;;13.43;6.17;;;17.00;99.90;;;;;;5029410;28;20201;-58
2022/10/12 11:32:43;;;;;;;17.20;6.50;;;17.00;99.90;;;;;;5030603;28;20660;-58
2022/10/12 11:35:18;;;;;;;10.57;6.13;;;16.80;99.90;;;;;;5028659;28;20202;-58
2022/10/12 11:37:53;;;;;;;10.53;5.77;;;16.50;99.90;;;;;;5030155;28;20212;-58
2022/10/12 11:40:25;;;;;;;13.63;6.03;;;16.20;99.90;;;;;;5040128;28;20199;-58
2022/10/12 11:43:20;;;;;;;12.73;5.43;;;16.00;99.90;;;;;;5031133;28;20281;-59
2022/10/12 11:45:52;;;;;;;12.30;7.00;;;16.00;99.90;;;;;;5026539;28;20650;-58
2022/10/12 11:48:26;;;;;;;13.23;5.70;;;16.00;99.90;;;;;;5030216;28;20196;-58
2022/10/12 11:50:57;;;;;;;9.93;5.80;;;15.90;99.90;;;;;;5024457;28;20204;-59
2022/10/12 11:53:40;;;;;;;12.40;5.70;;;15.90;99.90;;;;;;5024031;28;20201;-59
2022/10/12 11:56:18;;;;;;;12.90;6.90;;;16.00;99.90;;;;;;5033522;28;20203;-58
2022/10/12 11:58:49;;;;;;;13.50;5.60;;;16.00;99.90;;;;;;5032537;28;20668;-59
2022/10/12 12:01:47;;;;;;;12.33;5.00;;;16.10;99.90;;;;;;5029080;28;20207;-59
2022/10/12 12:04:28;;;;;;;14.10;6.87;;;16.10;99.90;;;;;;5035018;28;20199;-59
2022/10/12 12:07:40;;;;;;;12.57;6.57;;;16.10;99.90;;;;;;5030869;28;20191;-59
2022/10/12 12:10:51;;;;;;;16.40;5.87;;;16.10;99.90;;;;;;5021515;28;20232;-59
2022/10/12 12:13:25;;;;;;;11.80;5.57;;;16.10;99.90;;;;;;5012597;28;20219;-59
2022/10/12 12:16:33;;;;;;;19.87;10.27;;;16.10;99.90;;;;;;5028304;28;20267;-59
2022/10/12 12:19:33;;;;;;;12.87;7.40;;;16.20;99.90;;;;;;5026749;28;20808;-59
2022/10/12 12:22:41;;;;;;;19.00;8.97;;;16.20;99.90;;;;;;5027194;28;20219;-59
2022/10/12 12:25:30;;;;;;;9.20;5.47;;;16.30;99.90;;;;;;5025241;28;20238;-59
2022/10/12 12:28:05;;;;;;;10.20;7.10;;;16.50;99.90;;;;;;5034633;28;20220;-59
2022/10/12 12:30:36;;;;;;;13.73;5.50;;;16.80;99.90;;;;;;5028906;28;20200;-59
2022/10/12 12:33:25;;;;;;;15.43;7.10;;;17.00;99.90;;;;;;5027449;28;20825;-59
2022/10/12 12:35:56;;;;;;;12.03;5.60;;;17.20;99.90;;;;;;5021466;28;20312;-59
2022/10/12 12:38:28;;;;;;;12.70;5.20;;;17.20;99.90;;;;;;5032659;28;20202;-59
2022/10/12 12:41:09;;;;;;;10.37;6.17;;;17.10;99.90;;;;;;5023156;28;20678;-59
2022/10/12 12:44:02;;;;;;;11.60;5.50;;;16.80;99.90;;;;;;5020898;28;20198;-59
2022/10/12 12:47:08;;;;;;;10.57;5.17;;;16.60;99.90;;;;;;5021276;28;20642;-59
2022/10/12 12:50:01;;;;;;;8.07;4.40;;;16.60;99.90;;;;;;5027422;28;20203;-59
2022/10/12 12:52:32;;;;;;;6.60;4.53;;;16.90;99.90;;;;;;5029532;28;20188;-59
2022/10/12 12:55:34;;;;;;;10.57;4.87;;;17.30;99.90;;;;;;5026358;28;20201;-59
2022/10/12 12:58:24;;;;;;;9.37;4.17;;;17.50;99.90;;;;;;5025804;28;20217;-59
2022/10/12 13:01:10;;;;;;;10.20;4.10;;;17.70;99.90;;;;;;5029635;28;20193;-59
2022/10/12 13:04:10;;;;;;;12.77;5.20;;;17.80;99.90;;;;;;5029009;28;20734;-59
2022/10/12 13:07:14;;;;;;;6.90;4.40;;;17.70;99.90;;;;;;5024050;28;20235;-59